Time;durP1;ratioP1;P1;durP2;ratioP2;P2;SDS_P1;SDS_P2;PMS_P1;PMS_P2;Temp;Humidity;BMP_temperature;BMP_pressure;BME280_temperature;BME280_humidity;BME280_pressure;Samples;Min_cycle;Max_cycle;Signal;HPM_P1;HPM_P2
2021/03/30 00:01:27;;;;;;;1.10;0.70;;;11.10;90.60;;;;;;5076728;28;20427;-60
2021/03/30 00:03:53;;;;;;;1.10;0.70;;;11.10;90.70;;;;;;5077146;28;20442;-60
2021/03/30 00:06:20;;;;;;;2.28;0.70;;;11.10;90.60;;;;;;5076611;28;20435;-60
2021/03/30 00:08:47;;;;;;;4.10;0.80;;;11.10;91.30;;;;;;5076242;28;20836;-60
2021/03/30 00:11:14;;;;;;;1.52;0.73;;;11.00;91.80;;;;;;5076774;28;20485;-60
2021/03/30 00:13:40;;;;;;;1.00;0.60;;;11.00;91.40;;;;;;5074729;28;20517;-60
2021/03/30 00:16:07;;;;;;;3.30;0.70;;;11.00;91.90;;;;;;5074142;28;20741;-60
2021/03/30 00:18:33;;;;;;;1.10;0.60;;;10.90;92.10;;;;;;5073113;28;20473;-60
2021/03/30 00:21:00;;;;;;;2.40;0.70;;;10.90;92.40;;;;;;5072753;28;20432;-59
2021/03/30 00:23:26;;;;;;;1.65;0.70;;;10.80;92.60;;;;;;5071484;28;20439;-61
2021/03/30 00:25:54;;;;;;;1.80;0.60;;;10.90;92.20;;;;;;5072238;28;20715;-60
2021/03/30 00:28:21;;;;;;;3.25;0.70;;;10.80;92.40;;;;;;5071412;28;20817;-60
2021/03/30 00:30:47;;;;;;;1.83;0.60;;;10.80;92.90;;;;;;5073221;28;20548;-60
2021/03/30 00:33:14;;;;;;;2.50;0.70;;;10.80;93.30;;;;;;5072913;28;20855;-60
2021/03/30 00:35:40;;;;;;;2.70;0.70;;;10.80;93.80;;;;;;5073587;28;20486;-61
2021/03/30 00:38:09;;;;;;;2.60;0.60;;;10.80;94.10;;;;;;5071345;28;20503;-60
2021/03/30 00:40:36;;;;;;;1.33;0.60;;;10.80;94.00;;;;;;5071049;28;20869;-60
2021/03/30 00:43:04;;;;;;;2.40;0.60;;;10.80;94.30;;;;;;5071960;28;20412;-60
2021/03/30 00:45:30;;;;;;;0.80;0.52;;;10.80;94.60;;;;;;5074878;28;20518;-60
2021/03/30 00:47:57;;;;;;;1.05;0.70;;;10.70;94.90;;;;;;5076646;28;20455;-60
2021/03/30 00:50:31;;;;;;;1.55;0.63;;;10.70;95.00;;;;;;5075450;28;20497;-60
2021/03/30 00:52:58;;;;;;;2.58;0.68;;;10.70;95.00;;;;;;5074669;28;20831;-60
2021/03/30 00:55:25;;;;;;;1.30;0.70;;;10.60;95.20;;;;;;5075539;28;20523;-60
2021/03/30 00:57:51;;;;;;;2.10;0.70;;;10.60;95.70;;;;;;5075309;28;20447;-60
2021/03/30 01:00:20;;;;;;;1.70;0.70;;;10.60;96.00;;;;;;5075401;28;21009;-60
2021/03/30 01:02:48;;;;;;;1.70;0.70;;;10.60;96.00;;;;;;5073797;28;20445;-60
2021/03/30 01:05:15;;;;;;;1.75;0.60;;;10.60;96.00;;;;;;5074091;28;20518;-60
2021/03/30 01:07:55;;;;;;;1.10;0.60;;;10.60;96.50;;;;;;5074183;28;20419;-60
2021/03/30 01:10:32;;;;;;;1.80;0.60;;;10.60;96.50;;;;;;5075053;28;20795;-60
2021/03/30 01:13:07;;;;;;;1.00;0.50;;;10.60;96.10;;;;;;5075127;28;20477;-60
2021/03/30 01:15:43;;;;;;;1.50;0.60;;;10.60;96.00;;;;;;5075138;28;20427;-60
2021/03/30 01:18:15;;;;;;;1.40;0.60;;;10.60;96.20;;;;;;5075915;28;20470;-60
2021/03/30 01:21:19;;;;;;;1.10;0.60;;;10.60;96.20;;;;;;5076484;28;20532;-60
2021/03/30 01:23:58;;;;;;;1.07;0.60;;;10.60;96.80;;;;;;5076620;28;20830;-59
2021/03/30 01:26:35;;;;;;;1.58;0.70;;;10.50;97.30;;;;;;5076054;28;20485;-59
2021/03/30 01:29:24;;;;;;;1.70;0.70;;;10.50;97.50;;;;;;5076352;28;20842;-60
2021/03/30 01:31:54;;;;;;;1.37;0.70;;;10.50;98.20;;;;;;5075346;28;20490;-60
2021/03/30 01:34:23;;;;;;;1.00;0.70;;;10.40;98.50;;;;;;5074805;28;20454;-60
2021/03/30 01:36:52;;;;;;;1.40;0.70;;;10.40;98.50;;;;;;5075069;28;20423;-60
2021/03/30 01:39:20;;;;;;;1.50;0.80;;;10.30;98.70;;;;;;5074425;28;21008;-59
2021/03/30 01:41:49;;;;;;;2.10;0.70;;;10.30;98.60;;;;;;5073499;28;20438;-60
2021/03/30 01:44:19;;;;;;;2.10;0.60;;;10.20;99.40;;;;;;5074863;28;20450;-60
2021/03/30 01:46:47;;;;;;;0.98;0.60;;;10.30;99.60;;;;;;5074643;28;20746;-60
2021/03/30 01:49:14;;;;;;;1.08;0.60;;;10.20;99.40;;;;;;5074513;28;20450;-60
2021/03/30 01:51:42;;;;;;;1.40;0.90;;;10.20;99.60;;;;;;5074646;28;20411;-60
2021/03/30 01:54:11;;;;;;;2.43;0.60;;;10.10;99.50;;;;;;5074137;28;20426;-60
2021/03/30 01:56:38;;;;;;;2.10;0.70;;;10.00;99.90;;;;;;5073913;28;20458;-60
2021/03/30 01:59:07;;;;;;;1.17;0.60;;;10.00;99.90;;;;;;5072629;28;20881;-60
2021/03/30 02:01:35;;;;;;;1.10;0.60;;;9.90;99.90;;;;;;5072461;28;20769;-60
2021/03/30 02:04:03;;;;;;;1.30;0.70;;;9.80;99.90;;;;;;5073729;28;20466;-60
2021/03/30 02:06:32;;;;;;;1.10;0.60;;;9.80;99.90;;;;;;5073755;28;20428;-60
2021/03/30 02:09:03;;;;;;;1.50;0.60;;;9.80;99.90;;;;;;5073427;28;21036;-60
2021/03/30 02:11:32;;;;;;;1.30;0.60;;;9.80;99.90;;;;;;5074482;28;20427;-60
2021/03/30 02:13:59;;;;;;;1.60;0.60;;;9.80;99.90;;;;;;5073679;28;20454;-60
2021/03/30 02:16:30;;;;;;;2.00;0.60;;;9.80;99.90;;;;;;5073757;28;20534;-60
2021/03/30 02:19:08;;;;;;;1.63;0.50;;;9.80;99.90;;;;;;5075524;28;20507;-60
2021/03/30 02:21:42;;;;;;;1.80;0.60;;;9.70;99.90;;;;;;5075389;28;20431;-59
2021/03/30 02:24:11;;;;;;;0.80;0.50;;;9.70;99.90;;;;;;5075298;28;20477;-59
2021/03/30 02:26:40;;;;;;;1.42;0.50;;;9.70;99.90;;;;;;5075458;28;20419;-59
2021/03/30 02:29:10;;;;;;;1.90;0.60;;;9.60;99.90;;;;;;5075357;28;20831;-59
2021/03/30 02:31:38;;;;;;;2.10;0.50;;;9.60;99.90;;;;;;5075370;28;20518;-59
2021/03/30 02:34:08;;;;;;;1.05;0.50;;;9.80;99.90;;;;;;5075135;28;20419;-59
2021/03/30 02:36:35;;;;;;;1.05;0.68;;;9.70;99.90;;;;;;5075103;28;20462;-59
2021/03/30 02:39:07;;;;;;;1.60;0.50;;;9.70;99.90;;;;;;5074749;28;20861;-59
2021/03/30 02:41:36;;;;;;;1.30;0.50;;;9.70;99.90;;;;;;5074905;28;20709;-59
2021/03/30 02:44:07;;;;;;;0.90;0.60;;;9.70;99.90;;;;;;5075076;28;20854;-61
2021/03/30 02:46:35;;;;;;;1.50;0.60;;;9.60;99.90;;;;;;5074865;28;20459;-59
2021/03/30 02:49:02;;;;;;;1.20;0.60;;;9.50;99.90;;;;;;5075109;28;20454;-59
2021/03/30 02:51:33;;;;;;;0.90;0.60;;;9.50;99.90;;;;;;5074885;28;20466;-59
2021/03/30 02:54:00;;;;;;;1.55;0.60;;;9.40;99.90;;;;;;5074028;28;20736;-60
2021/03/30 02:56:27;;;;;;;2.30;0.50;;;9.40;99.90;;;;;;5074697;28;20540;-59
2021/03/30 02:58:54;;;;;;;1.10;0.70;;;9.50;99.90;;;;;;5074526;28;20419;-59
2021/03/30 03:01:22;;;;;;;1.20;0.60;;;9.40;99.90;;;;;;5073879;28;20587;-59
2021/03/30 03:03:50;;;;;;;1.30;0.70;;;9.30;99.90;;;;;;5073274;28;20523;-60
2021/03/30 03:06:17;;;;;;;1.30;0.70;;;9.30;99.90;;;;;;5073235;28;20475;-59
2021/03/30 03:08:46;;;;;;;1.80;0.70;;;9.30;99.90;;;;;;5073865;28;20890;-60
2021/03/30 03:11:13;;;;;;;1.70;0.70;;;9.30;99.90;;;;;;5072195;28;20423;-60
2021/03/30 03:13:42;;;;;;;1.10;0.60;;;9.20;99.90;;;;;;5072084;28;20459;-60
2021/03/30 03:16:11;;;;;;;1.20;0.60;;;9.30;99.90;;;;;;5071894;28;20544;-60
2021/03/30 03:18:39;;;;;;;2.70;0.60;;;9.20;99.90;;;;;;5073187;28;20734;-60
2021/03/30 03:21:07;;;;;;;0.82;0.57;;;9.10;99.90;;;;;;5073116;28;20854;-60
2021/03/30 03:23:33;;;;;;;1.10;0.60;;;9.10;99.90;;;;;;5073228;28;20769;-60
2021/03/30 03:26:01;;;;;;;2.70;0.60;;;9.00;99.90;;;;;;5072825;28;20459;-60
2021/03/30 03:28:27;;;;;;;1.50;0.60;;;9.00;99.90;;;;;;5073041;28;20502;-60
2021/03/30 03:30:54;;;;;;;2.23;0.60;;;9.00;99.90;;;;;;5073546;28;20482;-60
2021/03/30 03:33:20;;;;;;;0.75;0.50;;;8.90;99.90;;;;;;5073080;28;20427;-60
2021/03/30 03:36:05;;;;;;;1.35;0.60;;;9.10;99.90;;;;;;5074198;28;21023;-60
2021/03/30 03:38:32;;;;;;;2.07;0.60;;;9.20;99.90;;;;;;5074053;28;20492;-60
2021/03/30 03:40:58;;;;;;;1.05;0.70;;;9.20;99.90;;;;;;5074329;28;20471;-60
2021/03/30 03:43:26;;;;;;;2.10;0.85;;;9.30;99.90;;;;;;5073764;28;20518;-60
2021/03/30 03:45:52;;;;;;;2.23;0.60;;;9.20;99.90;;;;;;5073541;28;20543;-59
2021/03/30 03:48:19;;;;;;;1.25;0.60;;;9.10;99.90;;;;;;5073732;28;20430;-60
2021/03/30 03:50:46;;;;;;;1.20;0.60;;;9.00;99.90;;;;;;5073606;28;20430;-60
2021/03/30 03:53:14;;;;;;;1.00;0.60;;;9.00;99.90;;;;;;5073976;28;20486;-60
2021/03/30 03:55:47;;;;;;;2.20;0.50;;;9.00;99.90;;;;;;5073661;28;20936;-60
2021/03/30 03:58:16;;;;;;;1.50;0.60;;;9.00;99.90;;;;;;5073546;28;20489;-59
2021/03/30 04:00:43;;;;;;;2.00;0.60;;;8.90;99.90;;;;;;5073603;28;20423;-60
2021/03/30 04:03:18;;;;;;;1.90;0.70;;;8.80;99.90;;;;;;5074302;28;20485;-60
2021/03/30 04:05:55;;;;;;;1.30;0.70;;;8.80;99.90;;;;;;5073627;28;20446;-60
2021/03/30 04:08:24;;;;;;;3.25;0.70;;;8.80;99.90;;;;;;5073481;28;20425;-60
2021/03/30 04:10:53;;;;;;;1.63;0.70;;;8.80;99.90;;;;;;5073264;28;20446;-60
2021/03/30 04:13:21;;;;;;;2.53;0.70;;;8.80;99.90;;;;;;5072850;28;20424;-60
2021/03/30 04:15:49;;;;;;;2.65;0.80;;;8.80;99.90;;;;;;5073175;28;20438;-60
2021/03/30 04:18:16;;;;;;;2.60;0.75;;;8.80;99.90;;;;;;5073325;28;20443;-60
2021/03/30 04:20:43;;;;;;;2.20;0.70;;;8.80;99.90;;;;;;5074029;28;20459;-61
2021/03/30 04:23:09;;;;;;;1.97;0.70;;;8.70;99.90;;;;;;5074303;28;20882;-61
2021/03/30 04:25:36;;;;;;;1.50;0.70;;;8.70;99.90;;;;;;5074060;28;20453;-61
2021/03/30 04:28:02;;;;;;;1.00;0.60;;;8.80;99.90;;;;;;5076949;28;20450;-60
2021/03/30 04:30:29;;;;;;;1.30;0.70;;;9.00;99.90;;;;;;5077760;28;20467;-61
2021/03/30 04:32:56;;;;;;;1.10;0.70;;;8.90;99.90;;;;;;5077240;28;20496;-61
2021/03/30 04:35:23;;;;;;;1.05;0.60;;;8.90;99.90;;;;;;5077078;28;20733;-60
2021/03/30 04:37:49;;;;;;;1.33;0.70;;;8.90;99.90;;;;;;5076984;28;20854;-60
2021/03/30 04:40:17;;;;;;;1.05;0.50;;;8.90;99.90;;;;;;5077475;28;20459;-59
2021/03/30 04:42:43;;;;;;;1.42;0.70;;;8.90;99.90;;;;;;5076751;28;20526;-60
2021/03/30 04:45:10;;;;;;;1.80;0.70;;;8.90;99.90;;;;;;5096220;28;20446;-60
2021/03/30 04:47:37;;;;;;;1.50;0.80;;;8.90;99.90;;;;;;5088265;28;20479;-60
2021/03/30 04:50:07;;;;;;;1.70;0.70;;;8.90;99.90;;;;;;5095586;28;20520;-62
2021/03/30 04:52:33;;;;;;;1.10;0.70;;;8.90;99.90;;;;;;5088655;28;20702;-60
2021/03/30 04:54:59;;;;;;;1.40;0.60;;;8.90;99.90;;;;;;5088648;28;20524;-59
2021/03/30 04:57:26;;;;;;;1.85;0.60;;;8.80;99.90;;;;;;5096755;28;20804;-60
2021/03/30 04:59:53;;;;;;;1.20;0.60;;;8.90;99.90;;;;;;5095523;28;20430;-60
2021/03/30 05:02:19;;;;;;;1.10;0.60;;;9.00;99.90;;;;;;5088490;28;20465;-60
2021/03/30 05:04:45;;;;;;;2.60;0.63;;;9.00;99.90;;;;;;5089426;28;20477;-60
2021/03/30 05:07:13;;;;;;;2.27;0.70;;;9.10;99.90;;;;;;5094811;28;20789;-60
2021/03/30 05:09:39;;;;;;;1.00;0.65;;;9.30;99.90;;;;;;5095240;28;20465;-60
2021/03/30 05:12:06;;;;;;;2.88;0.60;;;9.50;99.90;;;;;;5095350;28;20449;-60
2021/03/30 05:14:32;;;;;;;1.40;0.70;;;9.50;99.90;;;;;;5095948;28;20517;-60
2021/03/30 05:16:59;;;;;;;3.08;0.70;;;9.50;99.90;;;;;;5095111;28;20453;-60
2021/03/30 05:19:26;;;;;;;2.95;0.75;;;9.40;99.90;;;;;;5086352;28;20520;-60
2021/03/30 05:21:52;;;;;;;1.23;0.60;;;9.20;99.90;;;;;;5093785;28;20505;-60
2021/03/30 05:24:19;;;;;;;1.30;0.70;;;9.20;99.90;;;;;;5085649;28;20873;-60
2021/03/30 05:26:46;;;;;;;1.50;0.60;;;9.30;99.90;;;;;;5094276;28;20828;-59
2021/03/30 05:29:13;;;;;;;1.95;0.70;;;9.40;99.90;;;;;;5077073;28;20458;-59
2021/03/30 05:31:39;;;;;;;1.60;0.77;;;9.50;99.90;;;;;;5086999;28;20422;-59
2021/03/30 05:34:06;;;;;;;1.10;0.70;;;9.50;99.90;;;;;;5088532;28;20485;-59
2021/03/30 05:36:32;;;;;;;1.30;0.70;;;9.50;99.90;;;;;;5095343;28;20586;-59
2021/03/30 05:38:59;;;;;;;1.60;0.70;;;9.60;99.90;;;;;;5089523;28;20428;-59
2021/03/30 05:41:26;;;;;;;2.90;0.80;;;9.60;99.90;;;;;;5093044;28;20461;-59
2021/03/30 05:43:55;;;;;;;2.20;0.90;;;9.60;99.90;;;;;;5090491;28;20430;-59
2021/03/30 05:46:22;;;;;;;1.02;0.70;;;9.70;99.90;;;;;;5091914;28;20426;-60
2021/03/30 05:48:49;;;;;;;2.43;0.80;;;9.70;99.90;;;;;;5091562;28;20429;-60
2021/03/30 05:51:18;;;;;;;4.43;0.90;;;9.90;99.90;;;;;;5089255;28;20869;-59
2021/03/30 05:53:50;;;;;;;4.43;0.83;;;9.90;99.90;;;;;;5085854;28;20461;-59
2021/03/30 05:56:19;;;;;;;2.28;0.85;;;9.90;99.90;;;;;;5073423;28;20515;-60
2021/03/30 05:58:47;;;;;;;4.30;0.80;;;10.00;99.90;;;;;;5089659;28;20478;-59
2021/03/30 06:01:16;;;;;;;2.50;1.05;;;9.90;99.90;;;;;;5094762;28;20434;-59
2021/03/30 06:03:43;;;;;;;2.90;0.90;;;9.80;99.90;;;;;;5094980;28;20465;-60
2021/03/30 06:06:11;;;;;;;3.00;1.10;;;9.70;99.90;;;;;;5092467;28;20430;-62
2021/03/30 06:08:38;;;;;;;2.30;0.80;;;9.70;99.90;;;;;;5093613;28;20458;-60
2021/03/30 06:11:07;;;;;;;4.03;0.90;;;9.80;99.90;;;;;;5093641;28;20791;-60
2021/03/30 06:13:53;;;;;;;2.45;0.80;;;9.90;99.90;;;;;;5093503;28;20946;-60
2021/03/30 06:16:29;;;;;;;2.10;0.90;;;9.90;99.90;;;;;;5093954;28;20438;-60
2021/03/30 06:19:17;;;;;;;1.70;0.80;;;10.10;99.90;;;;;;5086152;28;20461;-60
2021/03/30 06:21:45;;;;;;;3.28;0.90;;;10.10;99.90;;;;;;5085608;28;20444;-61
2021/03/30 06:24:30;;;;;;;2.08;0.90;;;10.10;99.90;;;;;;5094062;28;20461;-60
2021/03/30 06:27:15;;;;;;;1.20;0.80;;;10.30;99.90;;;;;;5091138;28;20425;-61
2021/03/30 06:29:43;;;;;;;1.92;0.90;;;10.30;99.90;;;;;;5090110;28;20586;-60
2021/03/30 06:32:12;;;;;;;1.90;0.90;;;10.40;99.90;;;;;;5081186;28;20432;-60
2021/03/30 06:34:41;;;;;;;2.00;0.90;;;10.40;99.90;;;;;;5088173;28;20468;-59
2021/03/30 06:37:33;;;;;;;2.00;0.90;;;10.40;99.90;;;;;;5087684;28;20880;-60
2021/03/30 06:40:00;;;;;;;1.92;1.10;;;10.40;99.90;;;;;;5090212;28;20502;-60
2021/03/30 06:42:35;;;;;;;3.55;1.10;;;10.40;99.90;;;;;;5090056;28;20435;-60
2021/03/30 06:45:04;;;;;;;1.93;0.87;;;10.40;99.90;;;;;;5088203;28;20876;-60
2021/03/30 06:47:31;;;;;;;1.90;0.95;;;10.30;99.90;;;;;;5073495;28;20423;-60
2021/03/30 06:50:00;;;;;;;1.90;0.95;;;10.30;99.90;;;;;;5069727;28;20979;-60
2021/03/30 06:52:29;;;;;;;1.98;0.90;;;10.10;99.90;;;;;;5088927;28;20707;-60
2021/03/30 06:54:58;;;;;;;3.75;1.00;;;10.00;99.90;;;;;;5090452;28;20437;-59
2021/03/30 06:57:39;;;;;;;3.83;1.20;;;9.90;99.90;;;;;;5092232;28;20458;-60
2021/03/30 07:00:11;;;;;;;1.70;0.93;;;9.90;99.90;;;;;;5083212;28;20433;-61
2021/03/30 07:02:43;;;;;;;3.40;1.10;;;10.00;99.90;;;;;;5092464;28;20430;-61
2021/03/30 07:05:24;;;;;;;2.40;0.90;;;10.10;99.90;;;;;;5093025;28;20438;-60
2021/03/30 07:07:54;;;;;;;4.88;1.20;;;10.20;99.90;;;;;;5093738;28;20841;-61
2021/03/30 07:10:21;;;;;;;3.17;0.90;;;10.40;99.90;;;;;;5094368;28;20513;-60
2021/03/30 07:12:50;;;;;;;3.28;1.00;;;10.60;99.90;;;;;;5093410;28;20440;-60
2021/03/30 07:15:19;;;;;;;4.60;1.20;;;10.70;99.90;;;;;;5092834;28;20440;-61
2021/03/30 07:17:54;;;;;;;1.55;1.10;;;10.80;99.90;;;;;;5089977;28;20534;-61
2021/03/30 07:20:22;;;;;;;1.77;1.10;;;10.90;99.90;;;;;;5072141;28;20506;-60
2021/03/30 07:22:51;;;;;;;3.45;1.30;;;11.00;99.90;;;;;;5081556;28;20857;-61
2021/03/30 07:25:22;;;;;;;3.15;1.05;;;11.10;99.90;;;;;;5091469;28;20437;-61
2021/03/30 07:27:53;;;;;;;2.08;1.10;;;11.30;99.90;;;;;;5083244;28;20428;-61
2021/03/30 07:30:22;;;;;;;1.83;1.08;;;11.40;99.90;;;;;;5091369;28;20788;-61
2021/03/30 07:33:02;;;;;;;3.45;1.60;;;11.60;99.90;;;;;;5092116;28;20671;-60
2021/03/30 07:35:31;;;;;;;2.42;1.20;;;11.60;99.90;;;;;;5088196;28;20926;-61
2021/03/30 07:38:04;;;;;;;3.70;1.20;;;11.70;99.90;;;;;;5090304;28;20426;-61
2021/03/30 07:40:31;;;;;;;2.40;1.20;;;11.80;99.90;;;;;;5081789;28;20843;-61
2021/03/30 07:42:58;;;;;;;4.53;1.13;;;11.80;99.90;;;;;;5083846;28;20477;-61
2021/03/30 07:45:29;;;;;;;3.30;1.77;;;12.00;99.90;;;;;;5087838;28;20437;-62
2021/03/30 07:47:57;;;;;;;3.85;1.20;;;12.10;99.90;;;;;;5071005;28;20423;-62
2021/03/30 07:50:45;;;;;;;3.67;1.40;;;12.20;99.90;;;;;;5084168;28;20437;-62
2021/03/30 07:53:39;;;;;;;1.70;1.20;;;12.20;99.90;;;;;;5087657;28;20509;-62
2021/03/30 07:56:07;;;;;;;2.33;1.30;;;12.20;99.90;;;;;;5082975;28;20503;-61
2021/03/30 07:58:39;;;;;;;4.30;1.20;;;12.30;99.90;;;;;;5087800;28;20418;-61
2021/03/30 08:01:07;;;;;;;3.15;1.40;;;12.50;99.90;;;;;;5089479;28;20860;-62
2021/03/30 08:03:36;;;;;;;2.30;1.20;;;12.70;99.90;;;;;;5083651;28;20484;-59
2021/03/30 08:06:21;;;;;;;2.60;1.70;;;12.80;99.90;;;;;;5088690;28;20472;-59
2021/03/30 08:08:57;;;;;;;3.33;1.60;;;12.90;99.90;;;;;;5080988;28;20412;-60
2021/03/30 08:11:46;;;;;;;2.83;1.50;;;12.80;99.90;;;;;;5075864;28;20431;-60
2021/03/30 08:14:39;;;;;;;3.60;1.50;;;12.90;99.90;;;;;;5089236;28;20422;-60
2021/03/30 08:17:13;;;;;;;5.28;1.20;;;13.20;99.90;;;;;;5096052;28;20455;-60
2021/03/30 08:20:14;;;;;;;1.80;1.20;;;13.30;99.90;;;;;;5092749;28;20872;-59
2021/03/30 08:23:12;;;;;;;3.28;1.10;;;13.50;99.90;;;;;;5089914;28;20465;-59
2021/03/30 08:25:39;;;;;;;5.40;2.50;;;13.60;99.90;;;;;;5070697;28;20500;-61
2021/03/30 08:28:06;;;;;;;5.38;1.60;;;13.70;99.90;;;;;;5090941;28;20422;-60
2021/03/30 08:30:53;;;;;;;3.38;1.23;;;13.90;99.90;;;;;;5083308;28;20721;-61
2021/03/30 08:33:22;;;;;;;2.50;1.30;;;14.00;99.90;;;;;;5082150;28;20429;-62
2021/03/30 08:35:49;;;;;;;4.80;1.60;;;14.10;99.90;;;;;;5093206;28;20434;-61
2021/03/30 08:38:41;;;;;;;2.20;1.30;;;14.20;99.90;;;;;;5093410;28;20515;-60
2021/03/30 08:41:07;;;;;;;5.00;1.40;;;14.40;99.90;;;;;;5092404;28;20520;-60
2021/03/30 08:43:34;;;;;;;4.70;1.40;;;14.60;99.90;;;;;;5094302;28;20850;-59
2021/03/30 08:46:06;;;;;;;1.92;1.23;;;14.70;99.90;;;;;;5092754;28;20516;-59
2021/03/30 08:48:36;;;;;;;1.90;1.20;;;14.80;99.90;;;;;;5091343;28;20476;-60
2021/03/30 08:51:06;;;;;;;3.80;1.20;;;14.80;99.90;;;;;;5087098;28;20468;-60
2021/03/30 08:53:33;;;;;;;2.53;1.20;;;14.80;99.90;;;;;;5088149;28;20853;-59
2021/03/30 08:56:03;;;;;;;2.30;1.30;;;14.90;99.90;;;;;;5088780;28;20435;-60
2021/03/30 08:58:32;;;;;;;2.75;1.42;;;15.10;99.90;;;;;;5092297;28;20574;-60
2021/03/30 09:01:05;;;;;;;3.80;1.40;;;15.40;99.90;;;;;;5093039;28;20433;-60
2021/03/30 09:03:32;;;;;;;4.90;1.40;;;15.60;99.90;;;;;;5080854;28;20430;-60
2021/03/30 09:06:00;;;;;;;3.75;1.20;;;15.80;99.90;;;;;;5089311;28;20911;-60
2021/03/30 09:08:40;;;;;;;3.80;1.40;;;15.80;99.90;;;;;;5093778;28;20422;-60
2021/03/30 09:11:18;;;;;;;3.20;1.20;;;15.90;99.90;;;;;;5093379;28;20429;-60
2021/03/30 09:14:01;;;;;;;3.20;1.50;;;16.00;99.90;;;;;;5083096;28;20441;-60
2021/03/30 09:16:28;;;;;;;2.20;1.10;;;16.10;99.90;;;;;;5088890;28;20480;-60
2021/03/30 09:19:20;;;;;;;3.40;1.10;;;16.20;99.90;;;;;;5093110;28;20518;-60
2021/03/30 09:21:50;;;;;;;2.13;1.40;;;16.40;99.60;;;;;;5090171;28;20521;-60
2021/03/30 09:24:32;;;;;;;2.00;1.17;;;16.40;99.60;;;;;;5092213;28;20748;-60
2021/03/30 09:27:00;;;;;;;5.20;1.50;;;16.50;99.50;;;;;;5085255;28;20430;-60
2021/03/30 09:29:26;;;;;;;3.15;1.30;;;16.70;98.80;;;;;;5092459;28;20433;-60
2021/03/30 09:31:53;;;;;;;2.40;1.10;;;16.80;98.40;;;;;;5087357;28;21060;-61
2021/03/30 09:34:20;;;;;;;3.20;1.15;;;16.90;97.30;;;;;;5076523;28;20729;-59
2021/03/30 09:36:49;;;;;;;2.25;1.40;;;16.90;97.20;;;;;;5085060;28;20422;-59
2021/03/30 09:39:20;;;;;;;3.15;1.20;;;17.00;97.30;;;;;;5090216;28;20453;-59
2021/03/30 09:41:48;;;;;;;3.80;1.20;;;17.20;97.00;;;;;;5090649;28;20428;-59
2021/03/30 09:44:15;;;;;;;2.50;1.00;;;17.30;97.10;;;;;;5090822;28;20724;-59
2021/03/30 09:46:43;;;;;;;2.28;1.20;;;17.50;96.60;;;;;;5092712;28;20446;-59
2021/03/30 09:49:11;;;;;;;3.80;1.10;;;17.70;96.40;;;;;;5092934;28;20418;-60
2021/03/30 09:51:38;;;;;;;3.65;1.40;;;17.90;95.60;;;;;;5092907;28;20741;-60
2021/03/30 09:54:26;;;;;;;2.40;1.10;;;18.00;94.90;;;;;;5094283;28;20737;-59
2021/03/30 09:56:58;;;;;;;1.30;1.00;;;18.10;94.60;;;;;;5094851;28;20461;-58
2021/03/30 09:59:25;;;;;;;2.70;1.10;;;18.20;93.40;;;;;;5093241;28;20461;-58
2021/03/30 10:01:52;;;;;;;3.00;1.00;;;18.30;93.80;;;;;;5093039;28;20861;-59
2021/03/30 10:04:21;;;;;;;2.67;0.90;;;18.40;93.70;;;;;;5091878;28;20453;-58
2021/03/30 10:06:47;;;;;;;5.70;1.20;;;18.70;93.50;;;;;;5093579;28;20426;-59
2021/03/30 10:09:14;;;;;;;2.53;1.10;;;19.00;93.00;;;;;;5084056;28;20452;-59
2021/03/30 10:11:44;;;;;;;3.22;1.10;;;19.10;92.70;;;;;;5087972;28;20503;-60
2021/03/30 10:14:18;;;;;;;4.70;1.20;;;19.40;92.00;;;;;;5081878;28;20425;-60
2021/03/30 10:16:45;;;;;;;3.75;1.10;;;19.50;91.00;;;;;;5089828;28;20712;-60
2021/03/30 10:19:13;;;;;;;2.35;1.25;;;19.80;90.90;;;;;;5077633;28;20861;-59
2021/03/30 10:21:40;;;;;;;1.90;1.00;;;20.20;90.00;;;;;;5087044;28;20459;-60
2021/03/30 10:24:12;;;;;;;1.98;1.10;;;20.50;89.20;;;;;;5088866;28;20455;-60
2021/03/30 10:26:39;;;;;;;2.40;1.20;;;20.80;87.20;;;;;;5085105;28;20425;-60
2021/03/30 10:29:11;;;;;;;1.90;1.30;;;21.10;84.50;;;;;;5089265;28;20417;-60
2021/03/30 10:31:41;;;;;;;3.40;1.30;;;21.30;81.90;;;;;;5091105;28;20433;-60
2021/03/30 10:34:22;;;;;;;1.92;1.10;;;21.40;80.50;;;;;;5091836;28;20426;-60
2021/03/30 10:36:51;;;;;;;2.20;1.30;;;21.50;79.00;;;;;;5091077;28;20437;-60
2021/03/30 10:39:18;;;;;;;2.75;1.10;;;21.80;78.10;;;;;;5087762;28;20461;-59
2021/03/30 10:41:45;;;;;;;1.70;1.10;;;22.10;75.90;;;;;;5088712;28;20453;-60
2021/03/30 10:44:17;;;;;;;3.13;1.10;;;22.20;73.50;;;;;;5090197;28;20422;-60
2021/03/30 10:46:44;;;;;;;1.50;1.00;;;22.40;70.90;;;;;;5085245;28;20422;-60
2021/03/30 10:49:12;;;;;;;2.10;1.00;;;22.50;69.50;;;;;;5089016;28;20950;-60
2021/03/30 10:51:41;;;;;;;1.87;1.00;;;22.70;65.50;;;;;;5088511;28;20433;-61
2021/03/30 10:54:10;;;;;;;2.45;0.98;;;22.70;67.10;;;;;;5085744;28;20430;-61
2021/03/30 10:56:38;;;;;;;1.40;1.00;;;22.70;63.70;;;;;;5081539;28;20461;-61
2021/03/30 10:59:12;;;;;;;1.90;1.00;;;23.10;62.90;;;;;;5090497;28;20422;-61
2021/03/30 11:01:39;;;;;;;1.30;0.87;;;22.90;60.20;;;;;;5084694;28;20826;-61
2021/03/30 11:04:07;;;;;;;1.90;0.90;;;22.70;61.60;;;;;;5090272;28;21051;-59
2021/03/30 11:06:33;;;;;;;1.50;0.93;;;23.00;59.90;;;;;;5089043;28;20487;-59
2021/03/30 11:09:00;;;;;;;1.80;0.90;;;23.30;58.80;;;;;;5088778;28;20907;-62
2021/03/30 11:11:26;;;;;;;1.55;0.85;;;23.70;57.90;;;;;;5084093;28;21151;-60
2021/03/30 11:13:53;;;;;;;1.67;0.80;;;23.70;56.20;;;;;;5087697;28;20507;-60
2021/03/30 11:16:20;;;;;;;2.05;0.80;;;23.70;55.90;;;;;;5081388;28;20873;-60
2021/03/30 11:18:47;;;;;;;1.73;0.80;;;23.80;55.60;;;;;;5082911;28;20423;-60
2021/03/30 11:21:14;;;;;;;1.87;0.80;;;24.10;53.90;;;;;;5087611;28;20437;-60
2021/03/30 11:23:42;;;;;;;1.75;0.90;;;24.30;53.10;;;;;;5085572;28;20437;-61
2021/03/30 11:26:09;;;;;;;1.40;0.90;;;24.30;51.90;;;;;;5091500;28;20517;-61
2021/03/30 11:28:42;;;;;;;1.10;0.80;;;24.30;52.60;;;;;;5092916;28;20447;-63
2021/03/30 11:31:15;;;;;;;1.15;0.80;;;24.40;50.20;;;;;;5081623;28;20496;-62
2021/03/30 11:33:44;;;;;;;1.85;0.77;;;24.30;51.00;;;;;;5071925;28;20549;-61
2021/03/30 11:36:13;;;;;;;2.92;0.70;;;24.50;49.90;;;;;;5089109;28;20433;-62
2021/03/30 11:38:39;;;;;;;1.20;0.70;;;24.40;50.30;;;;;;5090422;28;20463;-62
2021/03/30 11:41:08;;;;;;;1.10;0.80;;;24.60;49.50;;;;;;5092912;28;20469;-63
2021/03/30 11:43:35;;;;;;;1.30;0.70;;;24.70;49.00;;;;;;5092467;28;20432;-62
2021/03/30 11:46:01;;;;;;;1.50;0.60;;;25.00;48.20;;;;;;5094130;28;20799;-61
2021/03/30 11:48:28;;;;;;;1.00;0.70;;;24.90;47.40;;;;;;5095309;28;20785;-61
2021/03/30 11:50:54;;;;;;;1.90;0.80;;;25.40;47.00;;;;;;5093461;28;20846;-61
2021/03/30 11:53:22;;;;;;;1.20;0.80;;;25.20;47.50;;;;;;5093767;28;20428;-62
2021/03/30 11:55:48;;;;;;;1.50;0.80;;;25.40;47.30;;;;;;5093041;28;20534;-64
2021/03/30 11:58:15;;;;;;;1.20;0.80;;;25.50;46.70;;;;;;5092592;28;20737;-61
2021/03/30 12:00:41;;;;;;;1.50;0.70;;;25.20;46.50;;;;;;5090179;28;20425;-63
2021/03/30 12:03:08;;;;;;;2.30;0.75;;;25.20;46.60;;;;;;5095372;28;20430;-63
2021/03/30 12:05:35;;;;;;;2.70;0.70;;;25.20;44.80;;;;;;5094372;28;20925;-64
2021/03/30 12:08:02;;;;;;;1.40;0.70;;;25.20;45.40;;;;;;5087708;28;20431;-64
2021/03/30 12:10:29;;;;;;;1.55;0.70;;;25.20;45.50;;;;;;5092646;28;20469;-63
2021/03/30 12:12:56;;;;;;;2.28;0.70;;;25.40;45.10;;;;;;5094375;28;20881;-62
2021/03/30 12:15:22;;;;;;;1.30;0.88;;;25.80;45.20;;;;;;5074987;28;20501;-63
2021/03/30 12:17:49;;;;;;;2.80;0.90;;;25.70;44.10;;;;;;5087443;28;20506;-63
2021/03/30 12:20:16;;;;;;;2.40;0.80;;;25.60;44.50;;;;;;5095010;28;20861;-63
2021/03/30 12:22:44;;;;;;;2.00;0.80;;;25.80;45.00;;;;;;5095635;28;20892;-63
2021/03/30 12:25:12;;;;;;;1.63;0.70;;;26.20;43.10;;;;;;5090987;28;20494;-63
2021/03/30 12:27:39;;;;;;;1.30;0.70;;;26.20;42.60;;;;;;5096149;28;20486;-63
2021/03/30 12:30:07;;;;;;;1.40;0.80;;;26.20;41.40;;;;;;5092943;28;20469;-63
2021/03/30 12:32:33;;;;;;;1.40;0.70;;;25.80;42.60;;;;;;5092224;28;20534;-63
2021/03/30 12:35:00;;;;;;;1.33;0.80;;;26.10;41.90;;;;;;5093072;28;20465;-63
2021/03/30 12:37:28;;;;;;;1.88;0.70;;;25.90;40.90;;;;;;5093559;28;20422;-63
2021/03/30 12:39:55;;;;;;;1.30;0.60;;;25.70;41.90;;;;;;5089425;28;20443;-63
2021/03/30 12:42:22;;;;;;;1.20;0.82;;;25.70;39.70;;;;;;5093261;28;20503;-63
2021/03/30 12:44:49;;;;;;;1.00;0.60;;;25.80;40.40;;;;;;5088023;28;20435;-63
2021/03/30 12:47:16;;;;;;;1.20;0.60;;;26.20;39.00;;;;;;5091127;28;20424;-63
2021/03/30 12:49:42;;;;;;;1.20;0.60;;;26.50;37.90;;;;;;5091370;28;20473;-63
2021/03/30 12:52:12;;;;;;;0.90;0.60;;;26.40;37.50;;;;;;5092814;28;20424;-64
2021/03/30 12:54:39;;;;;;;1.40;0.60;;;26.20;37.20;;;;;;5092782;28;20438;-63
2021/03/30 12:57:06;;;;;;;1.10;0.60;;;26.30;37.10;;;;;;5090933;28;20838;-63
2021/03/30 12:59:32;;;;;;;0.80;0.60;;;26.30;38.00;;;;;;5089991;28;20521;-64
2021/03/30 13:02:00;;;;;;;1.30;0.70;;;26.50;38.10;;;;;;5092034;28;20480;-61
2021/03/30 13:04:26;;;;;;;1.08;0.63;;;26.30;38.80;;;;;;5090321;28;20434;-64